createdAt,value
2017-11-09T00:00:19.338Z,0.00
2017-11-09T00:01:19.292Z,0.00
2017-11-09T00:02:19.260Z,0.00
2017-11-09T00:03:19.255Z,0.00
2017-11-09T00:04:19.215Z,0.00
2017-11-09T00:05:19.199Z,0.00
2017-11-09T00:06:19.229Z,0.00
2017-11-09T00:07:19.158Z,0.00
2017-11-09T00:08:19.201Z,0.00
2017-11-09T00:09:19.127Z,0.00
2017-11-09T00:10:19.153Z,0.00
2017-11-09T00:11:20.828Z,0.00
2017-11-09T00:12:19.070Z,0.00
2017-11-09T00:13:19.025Z,0.00
2017-11-09T00:14:19.020Z,0.00
2017-11-09T00:15:18.985Z,0.00
2017-11-09T00:16:18.975Z,0.00
2017-11-09T00:17:18.941Z,0.00
2017-11-09T00:18:18.913Z,0.00
2017-11-09T00:19:18.887Z,0.00
2017-11-09T00:20:18.933Z,0.00
2017-11-09T00:21:18.876Z,0.00
2017-11-09T00:22:18.827Z,0.00
2017-11-09T00:23:18.814Z,0.00
2017-11-09T00:24:18.823Z,0.00
2017-11-09T00:25:18.781Z,0.00
2017-11-09T00:26:18.751Z,0.00
2017-11-09T00:27:18.718Z,0.00
2017-11-09T00:28:18.686Z,0.00
2017-11-09T00:29:18.661Z,0.00
2017-11-09T00:30:18.654Z,0.00
2017-11-09T00:31:18.661Z,0.00
2017-11-09T00:32:18.662Z,0.00
2017-11-09T00:33:18.581Z,0.00
2017-11-09T00:34:18.728Z,0.00
2017-11-09T00:35:18.611Z,0.00
2017-11-09T00:36:18.545Z,0.00
2017-11-09T00:37:18.506Z,0.00
2017-11-09T00:38:18.510Z,0.00
2017-11-09T00:39:18.461Z,0.00
2017-11-09T00:40:18.465Z,0.00
2017-11-09T00:41:18.421Z,0.00
2017-11-09T00:42:18.408Z,0.00
2017-11-09T00:43:18.385Z,0.00
2017-11-09T00:44:18.355Z,0.00
2017-11-09T00:45:18.337Z,0.00
2017-11-09T00:46:18.312Z,0.00
2017-11-09T00:47:18.265Z,0.00
2017-11-09T00:48:18.253Z,0.00
2017-11-09T00:49:18.249Z,0.00
2017-11-09T00:50:18.246Z,0.00
2017-11-09T00:51:18.265Z,0.00
2017-11-09T00:52:18.170Z,0.00
2017-11-09T00:53:18.143Z,0.00
2017-11-09T00:54:18.167Z,0.00
2017-11-09T00:55:18.147Z,0.00
2017-11-09T00:56:18.121Z,0.00
2017-11-09T00:57:18.055Z,0.00
2017-11-09T00:58:18.049Z,0.00
2017-11-09T00:59:18.048Z,0.00
2017-11-09T01:00:17.983Z,0.00
2017-11-09T01:01:17.970Z,0.00
2017-11-09T01:02:17.944Z,0.00
2017-11-09T01:03:17.921Z,0.00
2017-11-09T01:04:17.902Z,0.00
2017-11-09T01:05:17.894Z,0.00
2017-11-09T01:06:17.876Z,0.00
2017-11-09T01:07:17.839Z,0.00
2017-11-09T01:08:17.820Z,0.00
2017-11-09T01:09:17.789Z,0.00
2017-11-09T01:10:17.767Z,0.00
2017-11-09T01:11:17.879Z,0.00
2017-11-09T01:12:17.719Z,0.00
2017-11-09T01:13:17.689Z,0.00
2017-11-09T01:14:17.753Z,0.00
2017-11-09T01:15:17.650Z,0.00
2017-11-09T01:16:17.730Z,0.00
2017-11-09T01:17:17.620Z,0.00
2017-11-09T01:18:17.632Z,0.00
2017-11-09T01:19:17.566Z,0.00
2017-11-09T01:20:17.545Z,0.00
2017-11-09T01:21:17.564Z,0.00
2017-11-09T01:22:17.503Z,0.00
2017-11-09T01:23:17.512Z,0.00
2017-11-09T01:24:17.483Z,0.00
2017-11-09T01:25:17.439Z,0.00
2017-11-09T01:26:17.407Z,0.00
2017-11-09T01:27:17.399Z,0.00
2017-11-09T01:28:17.360Z,0.00
2017-11-09T01:29:17.361Z,0.00
2017-11-09T01:30:17.375Z,0.00
2017-11-09T01:31:17.310Z,0.00
2017-11-09T01:32:17.276Z,0.00
2017-11-09T01:33:17.264Z,0.00
2017-11-09T01:34:17.337Z,0.00
2017-11-09T01:35:17.248Z,0.00
2017-11-09T01:36:17.302Z,0.00
2017-11-09T01:37:17.309Z,0.00
2017-11-09T01:38:17.197Z,0.00
2017-11-09T01:39:17.120Z,0.00
2017-11-09T01:40:17.156Z,0.00
2017-11-09T01:41:17.178Z,0.00
2017-11-09T01:42:17.052Z,0.00
2017-11-09T01:43:17.029Z,0.00
2017-11-09T01:44:17.111Z,0.00
2017-11-09T01:45:17.014Z,0.00
2017-11-09T01:46:17.015Z,0.00
2017-11-09T01:47:16.976Z,0.00
2017-11-09T01:48:16.940Z,0.00
2017-11-09T01:49:16.905Z,0.00
2017-11-09T01:50:16.881Z,0.00
2017-11-09T01:51:16.865Z,0.00
2017-11-09T01:52:16.870Z,0.00
2017-11-09T01:53:17.054Z,0.00
2017-11-09T01:54:16.803Z,0.00
2017-11-09T01:55:16.769Z,0.00
2017-11-09T01:56:16.747Z,0.00
2017-11-09T01:57:16.725Z,0.00
2017-11-09T01:58:16.752Z,0.00
2017-11-09T01:59:16.698Z,0.00
2017-11-09T02:00:16.717Z,0.00
2017-11-09T02:01:16.637Z,0.00
2017-11-09T02:02:16.627Z,0.00
2017-11-09T02:03:16.583Z,0.00
2017-11-09T02:04:16.565Z,0.00
2017-11-09T02:05:16.587Z,0.00
2017-11-09T02:06:16.526Z,0.00
2017-11-09T02:07:16.502Z,0.00
2017-11-09T02:08:16.472Z,0.00
2017-11-09T02:09:16.458Z,0.00
2017-11-09T02:10:16.452Z,0.00
2017-11-09T02:11:16.410Z,0.00
2017-11-09T02:12:16.390Z,0.00
2017-11-09T02:13:16.403Z,0.00
2017-11-09T02:14:16.356Z,0.00
2017-11-09T02:15:16.316Z,0.00
2017-11-09T02:16:16.305Z,0.00
2017-11-09T02:17:16.297Z,0.00
2017-11-09T02:18:16.263Z,0.00
2017-11-09T02:19:16.282Z,0.00
2017-11-09T02:20:16.215Z,0.00
2017-11-09T02:21:16.177Z,0.00
2017-11-09T02:22:16.166Z,0.00
2017-11-09T02:23:16.184Z,0.00
2017-11-09T02:24:16.114Z,0.00
2017-11-09T02:25:16.090Z,0.00
2017-11-09T02:26:16.072Z,0.00
2017-11-09T02:27:16.175Z,0.00
2017-11-09T02:28:16.080Z,0.00
2017-11-09T02:29:16.011Z,0.00
2017-11-09T02:30:16.005Z,0.00
2017-11-09T02:31:15.960Z,0.00
2017-11-09T02:32:15.940Z,0.00
2017-11-09T02:33:15.923Z,0.00
2017-11-09T02:34:15.910Z,0.00
2017-11-09T02:35:16.023Z,0.00
2017-11-09T02:36:15.854Z,0.00
2017-11-09T02:37:15.843Z,0.00
2017-11-09T02:38:15.813Z,0.00
2017-11-09T02:39:15.789Z,0.00
2017-11-09T02:40:15.808Z,0.00
2017-11-09T02:41:15.804Z,0.00
2017-11-09T02:42:15.715Z,0.00
2017-11-09T02:43:15.699Z,0.00
2017-11-09T02:44:15.677Z,0.00
2017-11-09T02:45:15.646Z,0.00
2017-11-09T02:46:15.625Z,0.00
2017-11-09T02:47:15.603Z,0.00
2017-11-09T02:48:15.592Z,0.00
2017-11-09T02:49:15.558Z,0.00
2017-11-09T02:50:15.540Z,0.00
2017-11-09T02:51:15.524Z,0.00
2017-11-09T02:52:15.516Z,0.00
2017-11-09T02:53:15.487Z,0.00
2017-11-09T02:54:15.447Z,0.00
2017-11-09T02:55:15.434Z,0.00
2017-11-09T02:56:15.427Z,0.00
2017-11-09T02:57:15.379Z,0.00
2017-11-09T02:58:15.373Z,0.00
2017-11-09T02:59:15.373Z,0.00
2017-11-09T03:00:15.314Z,0.00
2017-11-09T03:01:15.294Z,0.00
2017-11-09T03:02:15.286Z,0.00
2017-11-09T03:03:15.311Z,0.00
2017-11-09T03:04:15.355Z,0.00
2017-11-09T03:05:15.239Z,0.00
2017-11-09T03:06:15.306Z,0.00
2017-11-09T03:07:15.210Z,0.00
2017-11-09T03:08:15.146Z,0.00
2017-11-09T03:09:15.179Z,0.00
2017-11-09T03:10:15.186Z,0.00
2017-11-09T03:11:15.303Z,0.00
2017-11-09T03:12:15.049Z,0.00
2017-11-09T03:13:15.043Z,0.00
2017-11-09T03:14:15.018Z,0.00
2017-11-09T03:15:14.990Z,0.00
2017-11-09T03:16:14.999Z,0.00
2017-11-09T03:17:14.958Z,0.00
2017-11-09T03:18:14.924Z,0.00
2017-11-09T03:19:14.910Z,0.00
2017-11-09T03:20:14.888Z,0.00
2017-11-09T03:21:14.852Z,0.00
2017-11-09T03:22:14.843Z,0.00
2017-11-09T03:23:14.809Z,0.00
2017-11-09T03:24:14.800Z,0.00
2017-11-09T03:25:14.761Z,0.00
2017-11-09T03:26:14.739Z,0.00
2017-11-09T03:27:14.734Z,0.00
2017-11-09T03:28:14.697Z,0.00
2017-11-09T03:29:14.678Z,0.00
2017-11-09T03:30:14.658Z,0.00
2017-11-09T03:31:14.634Z,0.00
2017-11-09T03:32:14.605Z,0.00
2017-11-09T03:33:14.588Z,0.00
2017-11-09T03:34:14.575Z,0.00
2017-11-09T03:35:14.542Z,0.00
2017-11-09T03:36:14.525Z,0.00
2017-11-09T03:37:14.541Z,0.00
2017-11-09T03:38:14.487Z,0.00
2017-11-09T03:39:14.465Z,0.00
2017-11-09T03:40:14.437Z,0.00
2017-11-09T03:41:14.441Z,0.00
2017-11-09T03:42:14.403Z,0.00
2017-11-09T03:43:14.374Z,0.00
2017-11-09T03:44:14.387Z,0.00
2017-11-09T03:45:14.367Z,0.00
2017-11-09T03:46:14.324Z,0.00
2017-11-09T03:47:14.284Z,0.00
2017-11-09T03:48:14.308Z,0.00
2017-11-09T03:49:14.240Z,0.00
2017-11-09T03:50:14.252Z,0.00
2017-11-09T03:51:14.235Z,0.00
2017-11-09T03:52:14.196Z,0.00
2017-11-09T03:53:14.149Z,0.00
2017-11-09T03:54:14.140Z,0.00
2017-11-09T03:55:14.115Z,0.00
2017-11-09T03:56:14.098Z,0.00
2017-11-09T03:57:14.096Z,0.00
2017-11-09T03:58:14.075Z,0.00
2017-11-09T03:59:14.042Z,0.00
2017-11-09T04:00:14.001Z,0.00
2017-11-09T04:01:14.016Z,0.00
2017-11-09T04:02:13.984Z,0.00
2017-11-09T04:03:13.970Z,0.00
2017-11-09T04:04:13.917Z,0.00
2017-11-09T04:05:13.887Z,0.00
2017-11-09T04:06:13.894Z,0.00
2017-11-09T04:07:13.843Z,0.00
2017-11-09T04:08:13.987Z,0.00
2017-11-09T04:09:13.813Z,0.00
2017-11-09T04:10:13.802Z,0.00
2017-11-09T04:11:13.836Z,0.00
2017-11-09T04:12:13.761Z,0.00
2017-11-09T04:13:13.761Z,0.00
2017-11-09T04:14:13.679Z,0.00
2017-11-09T04:15:13.655Z,0.00
2017-11-09T04:16:13.668Z,0.00
2017-11-09T04:17:13.662Z,0.00
2017-11-09T04:18:13.687Z,0.00
2017-11-09T04:19:13.603Z,0.00
2017-11-09T04:20:13.571Z,0.00
2017-11-09T04:21:13.563Z,0.00
2017-11-09T04:22:13.514Z,0.00
2017-11-09T04:23:15.407Z,0.00
2017-11-09T04:24:13.462Z,0.00
2017-11-09T04:25:13.501Z,0.00
2017-11-09T04:26:13.475Z,0.00
2017-11-09T04:27:13.401Z,0.00
2017-11-09T04:28:13.388Z,0.00
2017-11-09T04:29:13.376Z,0.00
2017-11-09T04:30:13.377Z,0.00
2017-11-09T04:31:13.394Z,0.00
2017-11-09T04:32:13.446Z,0.00
2017-11-09T04:33:13.343Z,0.00
2017-11-09T04:34:13.286Z,0.00
2017-11-09T04:35:13.285Z,0.00
2017-11-09T04:36:13.216Z,0.00
2017-11-09T04:37:13.216Z,0.00
2017-11-09T04:38:13.258Z,0.00
2017-11-09T04:39:13.185Z,0.00
2017-11-09T04:40:13.176Z,0.00
2017-11-09T04:41:13.436Z,0.00
2017-11-09T04:42:13.104Z,0.00
2017-11-09T04:43:13.113Z,0.00
2017-11-09T04:44:13.344Z,0.00
2017-11-09T04:45:13.052Z,0.00
2017-11-09T04:46:13.067Z,0.00
2017-11-09T04:47:12.981Z,0.00
2017-11-09T04:48:12.987Z,0.00
2017-11-09T04:49:12.941Z,0.00
2017-11-09T04:50:12.896Z,0.00
2017-11-09T04:51:12.919Z,0.00
2017-11-09T04:52:12.859Z,0.00
2017-11-09T04:53:12.857Z,0.00
2017-11-09T04:54:12.820Z,0.00
2017-11-09T04:55:12.789Z,0.00
2017-11-09T04:56:12.799Z,0.00
2017-11-09T04:57:12.752Z,0.00
2017-11-09T04:58:12.718Z,0.00
2017-11-09T04:59:12.731Z,0.00
2017-11-09T05:00:12.717Z,0.00
2017-11-09T05:01:12.722Z,0.00
2017-11-09T05:02:12.662Z,0.00
2017-11-09T05:03:12.632Z,0.00
2017-11-09T05:04:12.580Z,0.00
2017-11-09T05:05:12.586Z,0.00
2017-11-09T05:06:12.581Z,0.00
2017-11-09T05:07:12.569Z,0.00
2017-11-09T05:08:12.521Z,0.00
2017-11-09T05:09:12.494Z,0.00
2017-11-09T05:10:12.532Z,0.00
2017-11-09T05:11:12.527Z,0.00
2017-11-09T05:12:12.513Z,0.00
2017-11-09T05:13:12.872Z,0.00
2017-11-09T05:14:12.454Z,0.00
2017-11-09T05:15:12.365Z,0.00
2017-11-09T05:16:12.334Z,0.00
2017-11-09T05:17:12.331Z,0.00
2017-11-09T05:18:12.305Z,0.00
2017-11-09T05:19:12.250Z,0.00
2017-11-09T05:20:12.245Z,0.00
2017-11-09T05:21:12.249Z,0.00
2017-11-09T05:22:12.184Z,0.00
2017-11-09T05:23:12.179Z,0.00
2017-11-09T05:24:12.149Z,0.00
2017-11-09T05:25:12.141Z,0.00
2017-11-09T05:26:12.098Z,0.00
2017-11-09T05:27:12.084Z,0.00
2017-11-09T05:28:12.075Z,0.00
2017-11-09T05:29:12.044Z,0.00
2017-11-09T05:30:12.010Z,0.00
2017-11-09T05:31:11.991Z,0.00
2017-11-09T05:32:11.982Z,0.00
2017-11-09T05:33:11.955Z,0.00
2017-11-09T05:34:11.950Z,0.00
2017-11-09T05:35:11.901Z,0.00
2017-11-09T05:36:11.913Z,0.00
2017-11-09T05:37:11.868Z,0.00
2017-11-09T05:38:11.839Z,0.00
2017-11-09T05:39:11.841Z,0.00
2017-11-09T05:40:11.828Z,0.00
2017-11-09T05:41:11.798Z,0.00
2017-11-09T05:42:11.783Z,0.00
2017-11-09T05:43:11.757Z,0.00
2017-11-09T05:44:11.702Z,0.00
2017-11-09T05:45:11.679Z,0.00
2017-11-09T05:46:11.697Z,0.00
2017-11-09T05:47:11.638Z,0.00
2017-11-09T05:48:11.623Z,0.00
2017-11-09T05:49:11.654Z,0.00
2017-11-09T05:50:11.589Z,0.00
2017-11-09T05:51:11.558Z,0.00
2017-11-09T05:52:11.545Z,0.00
2017-11-09T05:53:11.549Z,0.00
2017-11-09T05:54:11.484Z,0.00
2017-11-09T05:55:11.492Z,0.00
2017-11-09T05:56:11.554Z,0.00
2017-11-09T05:57:11.436Z,0.00
2017-11-09T05:58:11.407Z,0.00
2017-11-09T05:59:11.387Z,0.00
2017-11-09T06:00:11.390Z,0.00
2017-11-09T06:01:11.397Z,0.00
2017-11-09T06:02:11.314Z,0.00
2017-11-09T06:03:11.300Z,0.00
2017-11-09T06:04:11.282Z,0.00
2017-11-09T06:05:11.278Z,0.00
2017-11-09T06:06:11.251Z,0.00
2017-11-09T06:07:11.218Z,0.00
2017-11-09T06:08:11.215Z,0.00
2017-11-09T06:09:11.295Z,0.00
2017-11-09T06:10:11.143Z,0.00
2017-11-09T06:11:11.151Z,0.00
2017-11-09T06:12:11.110Z,0.00
2017-11-09T06:13:11.088Z,0.00
2017-11-09T06:14:11.081Z,0.00
2017-11-09T06:15:11.259Z,0.00
2017-11-09T06:16:11.000Z,0.00
2017-11-09T06:17:10.986Z,0.00
2017-11-09T06:18:10.978Z,0.00
2017-11-09T06:19:10.965Z,0.00
2017-11-09T06:20:10.924Z,0.00
2017-11-09T06:21:10.910Z,0.00
2017-11-09T06:22:10.936Z,0.00
2017-11-09T06:23:10.871Z,0.00
2017-11-09T06:24:10.855Z,0.00
2017-11-09T06:25:10.798Z,0.00
2017-11-09T06:26:10.797Z,0.00
2017-11-09T06:27:10.801Z,0.00
2017-11-09T06:28:10.786Z,0.00
2017-11-09T06:29:10.719Z,0.00
2017-11-09T06:30:10.727Z,0.00
2017-11-09T06:31:10.725Z,0.00
2017-11-09T06:32:10.657Z,0.00
2017-11-09T06:33:10.631Z,0.00
2017-11-09T06:34:10.635Z,0.00
2017-11-09T06:35:10.621Z,0.00
2017-11-09T06:36:10.626Z,0.00
2017-11-09T06:37:10.583Z,0.00
2017-11-09T06:38:10.538Z,0.00
2017-11-09T06:39:10.523Z,0.00
2017-11-09T06:40:10.489Z,0.00
2017-11-09T06:41:10.470Z,5.63
2017-11-09T06:42:10.429Z,5.63
2017-11-09T06:43:10.410Z,5.63
2017-11-09T06:44:10.398Z,5.63
2017-11-09T06:45:10.402Z,5.63
2017-11-09T06:46:10.418Z,5.63
2017-11-09T06:47:10.330Z,5.63
2017-11-09T06:48:10.352Z,5.63
2017-11-09T06:49:10.283Z,5.63
2017-11-09T06:50:10.267Z,5.63
2017-11-09T06:51:10.250Z,5.63
2017-11-09T06:52:10.210Z,5.63
2017-11-09T06:53:10.195Z,5.63
2017-11-09T06:54:10.164Z,5.63
2017-11-09T06:55:10.133Z,5.63
2017-11-09T06:56:10.132Z,5.63
2017-11-09T06:57:10.097Z,11.25
2017-11-09T06:58:10.133Z,11.25
2017-11-09T06:59:10.080Z,11.25
2017-11-09T07:00:10.058Z,11.25
2017-11-09T07:01:10.040Z,11.25
2017-11-09T07:02:10.016Z,11.25
2017-11-09T07:03:10.003Z,16.88
2017-11-09T07:04:09.977Z,16.88
2017-11-09T07:05:09.963Z,16.88
2017-11-09T07:06:09.992Z,16.88
2017-11-09T07:07:09.914Z,22.50
2017-11-09T07:08:09.890Z,22.50
2017-11-09T07:09:09.859Z,22.50
2017-11-09T07:10:09.815Z,22.50
2017-11-09T07:11:09.789Z,22.50
2017-11-09T07:12:09.828Z,22.50
2017-11-09T07:13:09.776Z,22.50
2017-11-09T07:14:09.730Z,28.13
2017-11-09T07:15:09.725Z,28.13
2017-11-09T07:16:09.706Z,28.13
2017-11-09T07:17:09.661Z,33.75
2017-11-09T07:18:09.682Z,33.75
2017-11-09T07:19:09.620Z,33.75
2017-11-09T07:20:09.620Z,33.75
2017-11-09T07:21:09.646Z,33.75
2017-11-09T07:22:09.831Z,39.38
2017-11-09T07:23:09.566Z,39.38
2017-11-09T07:24:09.553Z,39.38
2017-11-09T07:25:09.508Z,39.38
2017-11-09T07:26:09.489Z,39.38
2017-11-09T07:27:09.466Z,39.38
2017-11-09T07:28:09.418Z,39.38
2017-11-09T07:29:09.392Z,39.38
2017-11-09T07:30:09.399Z,39.38
2017-11-09T07:31:09.347Z,45.00
2017-11-09T07:32:09.335Z,45.00
2017-11-09T07:33:09.316Z,45.00
2017-11-09T07:34:09.356Z,50.63
2017-11-09T07:35:09.295Z,50.63
2017-11-09T07:36:09.247Z,50.63
2017-11-09T07:37:09.227Z,50.63
2017-11-09T07:38:09.248Z,50.63
2017-11-09T07:39:09.200Z,50.63
2017-11-09T07:40:09.205Z,56.25
2017-11-09T07:41:09.164Z,56.25
2017-11-09T07:42:09.130Z,56.25
2017-11-09T07:43:09.095Z,56.25
2017-11-09T07:44:09.102Z,61.88
2017-11-09T07:45:09.094Z,61.88
2017-11-09T07:46:09.037Z,61.88
2017-11-09T07:47:09.021Z,61.88
2017-11-09T07:48:09.014Z,61.88
2017-11-09T07:49:09.021Z,61.88
2017-11-09T07:50:08.931Z,56.25
2017-11-09T07:51:08.941Z,56.25
2017-11-09T07:52:08.938Z,56.25
2017-11-09T07:53:08.891Z,56.25
2017-11-09T07:54:08.876Z,56.25
2017-11-09T07:55:08.849Z,56.25
2017-11-09T07:56:08.818Z,56.25
2017-11-09T07:57:08.809Z,56.25
2017-11-09T07:58:08.797Z,56.25
2017-11-09T07:59:08.768Z,56.25
2017-11-09T08:00:08.741Z,56.25
2017-11-09T08:01:08.725Z,61.88
2017-11-09T08:02:08.709Z,61.88
2017-11-09T08:03:09.450Z,61.88
2017-11-09T08:04:08.639Z,67.50
2017-11-09T08:05:08.625Z,67.50
2017-11-09T08:06:08.608Z,67.50
2017-11-09T08:07:08.587Z,73.13
2017-11-09T08:08:08.548Z,73.13
2017-11-09T08:09:08.534Z,73.13
2017-11-09T08:10:08.493Z,73.13
2017-11-09T08:11:08.514Z,73.13
2017-11-09T08:12:08.474Z,78.75
2017-11-09T08:13:08.470Z,78.75
2017-11-09T08:14:08.449Z,84.38
2017-11-09T08:15:08.396Z,90.00
2017-11-09T08:16:08.390Z,95.63
2017-11-09T08:17:08.362Z,101.25
2017-11-09T08:18:08.338Z,101.25
2017-11-09T08:19:08.366Z,106.88
2017-11-09T08:20:08.303Z,106.88
2017-11-09T08:21:08.347Z,101.25
2017-11-09T08:22:08.257Z,101.25
2017-11-09T08:23:08.232Z,101.25
2017-11-09T08:24:08.244Z,101.25
2017-11-09T08:25:08.190Z,101.25
2017-11-09T08:26:08.191Z,106.88
2017-11-09T08:27:08.146Z,112.50
2017-11-09T08:28:08.116Z,112.50
2017-11-09T08:29:08.093Z,118.13
2017-11-09T08:30:08.109Z,118.13
2017-11-09T08:31:08.081Z,118.13
2017-11-09T08:32:08.063Z,118.13
2017-11-09T08:33:08.025Z,118.13
2017-11-09T08:34:08.018Z,123.75
2017-11-09T08:35:08.004Z,129.38
2017-11-09T08:36:07.984Z,135.00
2017-11-09T08:37:07.920Z,146.25
2017-11-09T08:38:07.909Z,157.50
2017-11-09T08:39:07.896Z,163.13
2017-11-09T08:40:07.886Z,163.13
2017-11-09T08:41:07.859Z,157.50
2017-11-09T08:42:07.817Z,151.88
2017-11-09T08:43:07.815Z,146.25
2017-11-09T08:44:07.790Z,140.63
2017-11-09T08:45:07.777Z,129.38
2017-11-09T08:46:07.771Z,123.75
2017-11-09T08:47:07.751Z,118.13
2017-11-09T08:48:07.691Z,118.13
2017-11-09T08:49:07.692Z,123.75
2017-11-09T08:50:07.680Z,129.38
2017-11-09T08:51:07.630Z,129.38
2017-11-09T08:52:07.605Z,123.75
2017-11-09T08:53:07.582Z,129.38
2017-11-09T08:54:07.549Z,129.38
2017-11-09T08:55:07.550Z,146.25
2017-11-09T08:56:07.559Z,157.50
2017-11-09T08:57:07.548Z,174.38
2017-11-09T08:58:07.477Z,185.63
2017-11-09T08:59:07.449Z,191.25
2017-11-09T09:00:07.452Z,185.63
2017-11-09T09:01:07.435Z,174.38
2017-11-09T09:02:07.413Z,168.75
2017-11-09T09:03:07.522Z,163.13
2017-11-09T09:04:07.410Z,157.50
2017-11-09T09:05:07.366Z,151.88
2017-11-09T09:06:07.332Z,140.63
2017-11-09T09:07:07.313Z,135.00
2017-11-09T09:08:07.263Z,135.00
2017-11-09T09:09:07.252Z,157.50
2017-11-09T09:10:07.245Z,157.50
2017-11-09T09:11:07.232Z,146.25
2017-11-09T09:12:07.231Z,140.63
2017-11-09T09:13:07.173Z,146.25
2017-11-09T09:14:07.150Z,157.50
2017-11-09T09:15:07.132Z,180.00
2017-11-09T09:16:07.087Z,208.13
2017-11-09T09:17:07.068Z,230.63
2017-11-09T09:18:07.052Z,236.25
2017-11-09T09:19:07.020Z,247.50
2017-11-09T09:20:07.011Z,247.50
2017-11-09T09:21:06.997Z,236.25
2017-11-09T09:22:06.983Z,225.00
2017-11-09T09:23:06.949Z,213.75
2017-11-09T09:24:06.968Z,213.75
2017-11-09T09:25:06.917Z,225.00
2017-11-09T09:26:06.918Z,230.63
2017-11-09T09:27:06.866Z,236.25
2017-11-09T09:28:06.869Z,241.88
2017-11-09T09:29:06.828Z,236.25
2017-11-09T09:30:06.826Z,236.25
2017-11-09T09:31:06.770Z,230.63
2017-11-09T09:32:06.816Z,230.63
2017-11-09T09:33:06.746Z,230.63
2017-11-09T09:34:06.706Z,219.38
2017-11-09T09:35:06.755Z,213.75
2017-11-09T09:36:06.694Z,213.75
2017-11-09T09:37:06.691Z,208.13
2017-11-09T09:38:06.621Z,208.13
2017-11-09T09:39:06.628Z,202.50
2017-11-09T09:40:06.630Z,196.88
2017-11-09T09:41:06.572Z,191.25
2017-11-09T09:42:06.552Z,191.25
2017-11-09T09:43:06.538Z,191.25
2017-11-09T09:44:06.528Z,191.25
2017-11-09T09:45:06.533Z,191.25
2017-11-09T09:46:06.459Z,191.25
2017-11-09T09:47:06.456Z,196.88
2017-11-09T09:48:06.450Z,202.50
2017-11-09T09:49:06.400Z,213.75
2017-11-09T09:50:06.392Z,219.38
2017-11-09T09:51:06.506Z,241.88
2017-11-09T09:52:06.419Z,275.63
2017-11-09T09:53:06.533Z,326.25
2017-11-09T09:54:06.345Z,388.13
2017-11-09T09:55:06.986Z,450.00
2017-11-09T09:56:06.297Z,483.75
2017-11-09T09:57:06.318Z,511.88
2017-11-09T09:58:06.643Z,523.13
2017-11-09T09:59:07.886Z,489.38
2017-11-09T10:00:06.320Z,433.13
2017-11-09T10:01:06.632Z,360.00
2017-11-09T10:02:06.135Z,303.75
2017-11-09T10:03:06.122Z,253.13
2017-11-09T10:04:06.119Z,196.88
2017-11-09T10:05:06.117Z,157.50
2017-11-09T10:06:06.058Z,140.63
2017-11-09T10:07:06.205Z,135.00
2017-11-09T10:08:06.048Z,129.38
2017-11-09T10:09:06.061Z,135.00
2017-11-09T10:10:05.989Z,146.25
2017-11-09T10:11:05.983Z,157.50
2017-11-09T10:12:05.933Z,168.75
2017-11-09T10:13:06.464Z,174.38
2017-11-09T10:14:05.929Z,185.63
2017-11-09T10:15:05.887Z,180.00
2017-11-09T10:16:05.899Z,180.00
2017-11-09T10:17:05.926Z,168.75
2017-11-09T10:18:05.834Z,163.13
2017-11-09T10:19:05.853Z,146.25
2017-11-09T10:20:06.249Z,140.63
2017-11-09T10:21:05.812Z,129.38
2017-11-09T10:22:06.091Z,118.13
2017-11-09T10:23:05.894Z,112.50
2017-11-09T10:24:05.880Z,101.25
2017-11-09T10:25:06.332Z,84.38
2017-11-09T10:26:05.821Z,78.75
2017-11-09T10:27:05.976Z,78.75
2017-11-09T10:28:05.929Z,78.75
2017-11-09T10:29:05.667Z,90.00
2017-11-09T10:30:05.688Z,106.88
2017-11-09T10:31:05.604Z,118.13
2017-11-09T10:32:05.536Z,123.75
2017-11-09T10:33:05.630Z,123.75
2017-11-09T10:34:05.551Z,123.75
2017-11-09T10:35:05.589Z,129.38
2017-11-09T10:36:05.559Z,135.00
2017-11-09T10:37:05.449Z,135.00
2017-11-09T10:38:05.595Z,135.00
2017-11-09T10:39:05.473Z,135.00
2017-11-09T10:40:05.847Z,129.38
2017-11-09T10:41:05.378Z,123.75
2017-11-09T10:42:05.388Z,118.13
2017-11-09T10:43:05.348Z,112.50
2017-11-09T10:44:05.317Z,101.25
2017-11-09T10:45:05.447Z,95.63
2017-11-09T10:46:05.310Z,95.63
2017-11-09T10:47:05.245Z,95.63
2017-11-09T10:48:05.321Z,90.00
2017-11-09T10:49:05.245Z,84.38
2017-11-09T10:50:05.167Z,78.75
2017-11-09T10:51:05.169Z,73.13
2017-11-09T10:52:05.310Z,73.13
2017-11-09T10:53:05.258Z,67.50
2017-11-09T10:54:05.094Z,67.50
2017-11-09T10:55:05.162Z,67.50
2017-11-09T10:56:05.067Z,67.50
2017-11-09T10:57:05.053Z,73.13
2017-11-09T10:58:04.997Z,73.13
2017-11-09T10:59:05.000Z,73.13
2017-11-09T11:00:05.032Z,73.13
2017-11-09T11:01:05.017Z,73.13
2017-11-09T11:02:04.966Z,67.50
2017-11-09T11:03:04.928Z,67.50
2017-11-09T11:04:04.935Z,61.88
2017-11-09T11:05:04.900Z,61.88
2017-11-09T11:06:04.833Z,56.25
2017-11-09T11:07:04.915Z,50.63
2017-11-09T11:08:04.883Z,50.63
2017-11-09T11:09:04.821Z,45.00
2017-11-09T11:10:04.828Z,45.00
2017-11-09T11:11:04.920Z,45.00
2017-11-09T11:12:04.711Z,50.63
2017-11-09T11:13:04.693Z,50.63
2017-11-09T11:14:04.658Z,56.25
2017-11-09T11:15:04.742Z,56.25
2017-11-09T11:16:04.615Z,50.63
2017-11-09T11:17:04.591Z,50.63
2017-11-09T11:18:04.628Z,45.00
2017-11-09T11:19:04.630Z,45.00
2017-11-09T11:20:04.536Z,45.00
2017-11-09T11:21:04.762Z,45.00
2017-11-09T11:22:04.530Z,45.00
2017-11-09T11:23:04.468Z,45.00
2017-11-09T11:24:04.500Z,45.00
2017-11-09T11:25:04.510Z,45.00
2017-11-09T11:26:04.471Z,45.00
2017-11-09T11:27:04.776Z,39.38
2017-11-09T11:28:04.397Z,39.38
2017-11-09T11:29:04.366Z,39.38
2017-11-09T11:30:04.403Z,39.38
2017-11-09T11:31:04.357Z,39.38
2017-11-09T11:32:04.407Z,39.38
2017-11-09T11:33:04.438Z,39.38
2017-11-09T11:34:04.360Z,39.38
2017-11-09T11:35:04.348Z,39.38
2017-11-09T11:36:04.301Z,39.38
2017-11-09T11:37:04.220Z,39.38
2017-11-09T11:38:04.243Z,39.38
2017-11-09T11:39:04.163Z,39.38
2017-11-09T11:40:04.113Z,39.38
2017-11-09T11:41:04.236Z,39.38
2017-11-09T11:42:04.056Z,33.75
2017-11-09T11:43:04.054Z,33.75
2017-11-09T11:44:04.035Z,33.75
2017-11-09T11:45:03.984Z,33.75
2017-11-09T11:46:03.982Z,33.75
2017-11-09T11:47:03.991Z,33.75
2017-11-09T11:48:03.952Z,33.75
2017-11-09T11:49:03.982Z,33.75
2017-11-09T11:50:03.906Z,33.75
2017-11-09T11:51:03.862Z,33.75
2017-11-09T11:52:03.972Z,39.38
2017-11-09T11:53:03.890Z,39.38
2017-11-09T11:54:03.820Z,45.00
2017-11-09T11:55:03.857Z,50.63
2017-11-09T11:56:03.817Z,56.25
2017-11-09T11:57:03.758Z,56.25
2017-11-09T11:58:03.734Z,56.25
2017-11-09T11:59:03.733Z,56.25
2017-11-09T12:00:03.676Z,56.25
2017-11-09T12:01:03.657Z,56.25
2017-11-09T12:02:03.882Z,56.25
2017-11-09T12:03:03.646Z,56.25
2017-11-09T12:04:03.615Z,56.25
2017-11-09T12:05:03.584Z,56.25
2017-11-09T12:06:03.596Z,56.25
2017-11-09T12:07:03.558Z,50.63
2017-11-09T12:08:03.749Z,50.63
2017-11-09T12:09:03.552Z,50.63
2017-11-09T12:10:03.751Z,50.63
2017-11-09T12:11:03.459Z,50.63
2017-11-09T12:12:03.467Z,50.63
2017-11-09T12:13:03.504Z,50.63
2017-11-09T12:14:03.366Z,45.00
2017-11-09T12:15:03.541Z,45.00
2017-11-09T12:16:03.371Z,50.63
2017-11-09T12:17:03.335Z,50.63
2017-11-09T12:18:03.368Z,50.63
2017-11-09T12:19:03.306Z,50.63
2017-11-09T12:20:03.289Z,56.25
2017-11-09T12:21:03.315Z,61.88
2017-11-09T12:22:03.204Z,67.50
2017-11-09T12:23:03.314Z,73.13
2017-11-09T12:24:03.373Z,73.13
2017-11-09T12:25:03.158Z,73.13
2017-11-09T12:26:03.200Z,73.13
2017-11-09T12:27:03.134Z,73.13
2017-11-09T12:28:03.089Z,84.38
2017-11-09T12:29:03.110Z,90.00
2017-11-09T12:30:03.076Z,95.63
2017-11-09T12:31:03.014Z,106.88
2017-11-09T12:32:03.002Z,106.88
2017-11-09T12:33:02.965Z,118.13
2017-11-09T12:34:02.997Z,129.38
2017-11-09T12:35:03.040Z,157.50
2017-11-09T12:36:03.010Z,180.00
2017-11-09T12:37:03.059Z,180.00
2017-11-09T12:38:02.964Z,168.75
2017-11-09T12:39:03.102Z,168.75
2017-11-09T12:40:03.079Z,174.38
2017-11-09T12:41:02.970Z,174.38
2017-11-09T12:42:02.846Z,180.00
2017-11-09T12:43:03.098Z,191.25
2017-11-09T12:44:02.916Z,196.88
2017-11-09T12:45:02.961Z,196.88
2017-11-09T12:46:02.849Z,180.00
2017-11-09T12:47:02.910Z,168.75
2017-11-09T12:48:02.784Z,157.50
2017-11-09T12:49:02.799Z,135.00
2017-11-09T12:50:02.611Z,118.13
2017-11-09T12:51:02.790Z,101.25
2017-11-09T12:52:02.670Z,90.00
2017-11-09T12:53:03.118Z,106.88
2017-11-09T12:54:02.598Z,112.50
2017-11-09T12:55:02.531Z,106.88
2017-11-09T12:56:02.517Z,95.63
2017-11-09T12:57:02.498Z,101.25
2017-11-09T12:58:02.507Z,123.75
2017-11-09T12:59:02.455Z,180.00
2017-11-09T13:00:02.438Z,258.75